Time;durP1;ratioP1;P1;durP2;ratioP2;P2;SDS_P1;SDS_P2;PMS_P1;PMS_P2;Temp;Humidity;BMP_temperature;BMP_pressure;BME280_temperature;BME280_humidity;BME280_pressure;Samples;Min_cycle;Max_cycle;Signal;HPM_P1;HPM_P2
2023/12/08 00:02:20;;;;;;;8.32;5.10;;;4.20;55.50;;;;;;4967074;28;20093;-82
2023/12/08 00:04:46;;;;;;;8.48;5.68;;;4.20;55.70;;;;;;4999935;28;20133;-82
2023/12/08 00:07:13;;;;;;;9.23;6.10;;;4.20;55.70;;;;;;4984453;28;20049;-82
2023/12/08 00:09:39;;;;;;;9.30;6.22;;;4.20;55.70;;;;;;4991312;28;20046;-81
2023/12/08 00:12:05;;;;;;;7.97;5.82;;;4.20;55.70;;;;;;4983263;28;20475;-82
2023/12/08 00:14:31;;;;;;;7.70;5.55;;;4.20;55.60;;;;;;4974716;28;20499;-83
2023/12/08 00:16:57;;;;;;;7.85;5.40;;;4.20;55.60;;;;;;4952916;28;20042;-82
2023/12/08 00:19:23;;;;;;;8.57;5.38;;;4.20;55.60;;;;;;5006767;28;20113;-81
2023/12/08 00:21:49;;;;;;;9.55;5.60;;;4.20;55.40;;;;;;5006426;28;20402;-84
2023/12/08 00:24:15;;;;;;;8.85;5.18;;;4.20;55.50;;;;;;5008177;28;20093;-85
2023/12/08 00:26:41;;;;;;;7.95;5.70;;;4.20;55.60;;;;;;4993593;28;20037;-87
2023/12/08 00:29:07;;;;;;;8.15;5.60;;;4.20;55.50;;;;;;5006137;28;20405;-85
2023/12/08 00:31:33;;;;;;;8.60;5.80;;;4.20;55.70;;;;;;4998080;28;20505;-85
2023/12/08 00:33:59;;;;;;;7.70;5.15;;;4.20;55.60;;;;;;4982119;28;20034;-85
2023/12/08 00:36:26;;;;;;;8.77;5.43;;;4.20;55.80;;;;;;5006230;28;20049;-82
2023/12/08 00:38:52;;;;;;;8.05;5.47;;;4.20;56.00;;;;;;4986363;28;20032;-84
2023/12/08 00:41:18;;;;;;;10.02;6.00;;;4.20;56.00;;;;;;4985483;28;20162;-85
2023/12/08 00:43:44;;;;;;;9.05;5.82;;;4.20;56.00;;;;;;4973617;28;21003;-82
2023/12/08 00:46:10;;;;;;;9.30;6.18;;;4.20;56.00;;;;;;4989464;28;20040;-84
2023/12/08 00:48:36;;;;;;;10.65;6.38;;;4.20;55.90;;;;;;5007053;28;20031;-84
2023/12/08 00:51:02;;;;;;;8.77;5.93;;;4.20;55.80;;;;;;4973813;28;20425;-82
2023/12/08 00:53:28;;;;;;;9.93;6.75;;;4.20;55.70;;;;;;4981756;28;20096;-82
2023/12/08 00:55:54;;;;;;;9.55;6.43;;;4.30;55.60;;;;;;4992343;28;20046;-82
2023/12/08 00:58:20;;;;;;;8.63;6.68;;;4.20;55.50;;;;;;5008111;28;20046;-82
2023/12/08 01:00:46;;;;;;;9.63;6.63;;;4.20;55.50;;;;;;4999529;28;20038;-78
2023/12/08 01:03:12;;;;;;;10.70;6.55;;;4.20;56.20;;;;;;4992094;28;20429;-79
2023/12/08 01:05:38;;;;;;;10.25;6.88;;;4.20;55.70;;;;;;4991629;28;20535;-82
2023/12/08 01:08:05;;;;;;;11.65;7.35;;;4.20;55.50;;;;;;4989554;28;20089;-81
2023/12/08 01:10:31;;;;;;;10.55;7.15;;;4.20;55.50;;;;;;4990881;28;20543;-83
2023/12/08 01:12:57;;;;;;;11.27;7.50;;;4.20;55.50;;;;;;4968593;28;20049;-81
2023/12/08 01:15:23;;;;;;;10.65;7.47;;;4.20;55.50;;;;;;4991721;28;20066;-82
2023/12/08 01:17:49;;;;;;;10.55;7.25;;;4.20;55.50;;;;;;4990594;28;20069;-82
2023/12/08 01:20:15;;;;;;;11.02;7.38;;;4.20;55.40;;;;;;4986524;28;20065;-82
2023/12/08 01:22:41;;;;;;;8.32;6.65;;;4.20;55.30;;;;;;4985292;28;20038;-82
2023/12/08 01:25:07;;;;;;;11.70;7.60;;;4.20;55.20;;;;;;4980584;28;20035;-81
2023/12/08 01:27:33;;;;;;;10.82;6.75;;;4.20;55.00;;;;;;4989049;28;20034;-83
2023/12/08 01:29:59;;;;;;;8.90;6.30;;;4.20;55.00;;;;;;4989901;28;20468;-82
2023/12/08 01:32:25;;;;;;;10.43;6.40;;;4.20;54.90;;;;;;4991235;28;20035;-83
2023/12/08 01:34:51;;;;;;;8.35;6.38;;;4.20;54.80;;;;;;5009884;28;20803;-83
2023/12/08 01:37:17;;;;;;;10.10;6.50;;;4.20;54.70;;;;;;4993957;28;20091;-84
2023/12/08 01:39:43;;;;;;;8.93;5.70;;;4.20;54.60;;;;;;5009868;28;20049;-81
2023/12/08 01:42:10;;;;;;;8.57;6.20;;;4.20;54.70;;;;;;4994051;28;20478;-84
2023/12/08 01:44:36;;;;;;;7.70;5.65;;;4.30;54.90;;;;;;4971449;28;20377;-85
2023/12/08 01:47:02;;;;;;;7.57;5.20;;;4.20;54.80;;;;;;4995294;28;20035;-85
2023/12/08 01:49:28;;;;;;;8.75;5.28;;;4.30;54.80;;;;;;5000403;28;20038;-85
2023/12/08 01:51:54;;;;;;;10.23;6.28;;;4.30;54.60;;;;;;4984150;28;20042;-85
2023/12/08 01:54:21;;;;;;;9.02;5.28;;;4.30;54.50;;;;;;4977359;28;20397;-80
2023/12/08 01:56:47;;;;;;;9.82;6.15;;;4.20;54.40;;;;;;4993447;28;20062;-80
2023/12/08 01:59:14;;;;;;;8.80;5.53;;;4.30;54.50;;;;;;4993054;28;20105;-80
2023/12/08 02:01:40;;;;;;;10.00;5.80;;;4.20;54.30;;;;;;5001479;28;20456;-79
2023/12/08 02:04:07;;;;;;;8.15;5.40;;;4.20;54.10;;;;;;5013297;28;20508;-81
2023/12/08 02:06:35;;;;;;;10.05;5.93;;;4.20;53.90;;;;;;5003474;28;20397;-79
2023/12/08 02:09:01;;;;;;;9.50;5.55;;;4.20;53.90;;;;;;4976492;28;20497;-80
2023/12/08 02:11:27;;;;;;;9.63;5.78;;;4.20;53.80;;;;;;4995113;28;20113;-80
2023/12/08 02:13:53;;;;;;;8.00;5.40;;;4.20;53.80;;;;;;4997366;28;20113;-79
2023/12/08 02:16:28;;;;;;;8.45;5.32;;;4.20;53.70;;;;;;4987931;28;20065;-80
2023/12/08 02:18:55;;;;;;;8.00;5.28;;;4.20;53.60;;;;;;4974732;28;20049;-79
2023/12/08 02:21:21;;;;;;;8.73;5.50;;;4.20;53.70;;;;;;4994411;28;20554;-80
2023/12/08 02:23:50;;;;;;;7.40;5.20;;;4.20;53.50;;;;;;5002660;28;20035;-80
2023/12/08 02:26:18;;;;;;;7.35;5.13;;;4.20;53.50;;;;;;5011699;28;20481;-80
2023/12/08 02:28:45;;;;;;;10.45;5.95;;;4.20;53.40;;;;;;4994875;28;20497;-81
2023/12/08 02:31:14;;;;;;;8.75;5.50;;;4.20;53.40;;;;;;4998146;28;20046;-80
2023/12/08 02:33:45;;;;;;;8.32;5.70;;;4.30;53.30;;;;;;4990387;28;20039;-79
2023/12/08 02:36:16;;;;;;;9.00;5.32;;;4.30;53.20;;;;;;5001067;28;20041;-80
2023/12/08 02:38:42;;;;;;;8.93;5.65;;;4.30;53.00;;;;;;4996825;28;20030;-82
2023/12/08 02:41:09;;;;;;;9.23;5.75;;;4.20;52.90;;;;;;4997291;28;20413;-83
2023/12/08 02:43:35;;;;;;;9.82;5.63;;;4.20;52.70;;;;;;4997186;28;20046;-80
2023/12/08 02:46:01;;;;;;;9.07;5.78;;;4.20;52.80;;;;;;5011273;28;21402;-79
2023/12/08 02:48:27;;;;;;;7.72;5.22;;;4.20;52.60;;;;;;4993566;28;20077;-85
2023/12/08 02:50:53;;;;;;;9.25;5.82;;;4.20;52.80;;;;;;4999897;28;20061;-90
2023/12/08 02:53:19;;;;;;;8.23;5.78;;;4.20;52.70;;;;;;4997263;28;20464;-85
2023/12/08 02:55:45;;;;;;;8.77;5.80;;;4.20;52.80;;;;;;4993403;28;20041;-86
2023/12/08 02:58:11;;;;;;;8.95;5.35;;;4.20;52.70;;;;;;4992593;28;20145;-88
2023/12/08 03:00:37;;;;;;;10.07;6.18;;;4.20;52.60;;;;;;4991210;28;20260;-85
2023/12/08 03:03:03;;;;;;;8.43;5.55;;;4.20;52.50;;;;;;4991163;28;20488;-85
2023/12/08 03:05:29;;;;;;;8.23;6.00;;;4.20;52.40;;;;;;4993254;28;20036;-84
2023/12/08 03:07:55;;;;;;;9.43;5.82;;;4.20;52.40;;;;;;4993494;28;20035;-86
2023/12/08 03:10:21;;;;;;;10.02;5.88;;;4.20;52.40;;;;;;4992743;28;21099;-84
2023/12/08 03:12:47;;;;;;;8.77;6.03;;;4.20;52.30;;;;;;4993925;28;20052;-87
2023/12/08 03:15:13;;;;;;;9.70;5.82;;;4.20;52.30;;;;;;4994544;28;20030;-85
2023/12/08 03:17:39;;;;;;;10.18;6.28;;;4.20;52.50;;;;;;4992987;28;20041;-83
2023/12/08 03:20:05;;;;;;;9.82;6.78;;;4.20;52.40;;;;;;4993905;28;20124;-84
2023/12/08 03:22:31;;;;;;;10.07;6.20;;;4.20;52.60;;;;;;4990960;28;20034;-84
2023/12/08 03:24:57;;;;;;;11.15;6.70;;;4.20;52.60;;;;;;4991942;28;20045;-81
2023/12/08 03:27:23;;;;;;;9.32;5.90;;;4.20;52.60;;;;;;4992525;28;20559;-85
2023/12/08 03:29:49;;;;;;;9.50;6.35;;;4.20;52.60;;;;;;4994307;28;20504;-87
2023/12/08 03:32:15;;;;;;;11.32;6.40;;;4.20;52.50;;;;;;5007306;28;20034;-84
2023/12/08 03:34:41;;;;;;;10.10;6.10;;;4.20;52.50;;;;;;4992023;28;20535;-87
2023/12/08 03:37:07;;;;;;;10.73;6.82;;;4.20;52.50;;;;;;4990501;28;20042;-88
2023/12/08 03:39:33;;;;;;;11.40;6.93;;;4.20;52.30;;;;;;4994161;28;20121;-87
2023/12/08 03:41:59;;;;;;;10.77;6.13;;;4.20;52.30;;;;;;4987118;28;20153;-87
2023/12/08 03:44:25;;;;;;;10.23;5.93;;;4.20;52.20;;;;;;4976618;28;20041;-87
2023/12/08 03:46:51;;;;;;;10.73;6.30;;;4.20;52.20;;;;;;4990423;28;20584;-85
2023/12/08 03:49:17;;;;;;;11.68;6.68;;;4.20;52.20;;;;;;5008167;28;20041;-85
2023/12/08 03:51:43;;;;;;;12.20;7.05;;;4.20;52.10;;;;;;4992981;28;20100;-87
2023/12/08 03:54:09;;;;;;;11.98;6.68;;;4.20;52.00;;;;;;4999124;28;20084;-87
2023/12/08 03:56:35;;;;;;;11.82;7.47;;;4.20;51.90;;;;;;4992095;28;20044;-82
2023/12/08 03:59:01;;;;;;;9.55;7.05;;;4.30;52.00;;;;;;4998074;28;20130;-83
2023/12/08 04:01:27;;;;;;;10.90;6.70;;;4.20;51.90;;;;;;4980639;28;20038;-78
2023/12/08 04:03:53;;;;;;;10.95;6.80;;;4.30;52.10;;;;;;4974862;28;20050;-79
2023/12/08 04:06:19;;;;;;;10.23;6.53;;;4.20;52.20;;;;;;4990845;28;20031;-79
2023/12/08 04:08:45;;;;;;;10.20;6.65;;;4.20;52.20;;;;;;4990017;28;20034;-78
2023/12/08 04:11:12;;;;;;;11.05;6.80;;;4.30;52.50;;;;;;4990368;28;20038;-79
2023/12/08 04:13:41;;;;;;;13.07;7.60;;;4.20;52.40;;;;;;4991103;28;20042;-77
2023/12/08 04:16:07;;;;;;;13.48;8.10;;;4.20;52.40;;;;;;4986992;28;20065;-80
2023/12/08 04:18:35;;;;;;;11.27;7.18;;;4.20;52.50;;;;;;4997097;28;20044;-80
2023/12/08 04:21:01;;;;;;;10.52;6.65;;;4.20;52.60;;;;;;4989796;28;20179;-78
2023/12/08 04:23:27;;;;;;;12.45;7.28;;;4.20;52.50;;;;;;4974863;28;20046;-79
2023/12/08 04:25:53;;;;;;;9.93;6.43;;;4.30;52.60;;;;;;4986855;28;20484;-77
2023/12/08 04:28:19;;;;;;;10.43;6.78;;;4.20;52.50;;;;;;4992719;28;20042;-82
2023/12/08 04:30:45;;;;;;;12.02;6.78;;;4.30;52.60;;;;;;4992279;28;20045;-88
2023/12/08 04:33:14;;;;;;;11.40;6.63;;;4.30;52.60;;;;;;4993876;28;20048;-87
2023/12/08 04:35:43;;;;;;;9.65;6.38;;;4.30;52.60;;;;;;5014175;28;20042;-84
2023/12/08 04:38:09;;;;;;;10.73;6.65;;;4.30;52.60;;;;;;5000311;28;20034;-85
2023/12/08 04:40:35;;;;;;;11.82;7.13;;;4.30;52.60;;;;;;4991152;28;20034;-86
2023/12/08 04:43:01;;;;;;;11.98;7.28;;;4.30;52.60;;;;;;4992064;28;20133;-83
2023/12/08 04:45:27;;;;;;;11.55;6.43;;;4.30;52.40;;;;;;5003979;28;20038;-77
2023/12/08 04:47:53;;;;;;;10.18;6.90;;;4.30;52.30;;;;;;4989251;28;20033;-79
2023/12/08 04:50:19;;;;;;;10.77;6.25;;;4.30;52.20;;;;;;4990200;28;20038;-86
2023/12/08 04:52:45;;;;;;;12.57;6.93;;;4.30;52.20;;;;;;4992913;28;20040;-92
2023/12/08 04:55:11;;;;;;;11.15;7.22;;;4.30;52.20;;;;;;4990580;28;20038;-87
2023/12/08 04:57:37;;;;;;;12.32;7.28;;;4.30;52.20;;;;;;5006521;28;20046;-82
2023/12/08 05:00:05;;;;;;;11.07;6.95;;;4.30;52.30;;;;;;4969826;28;20040;-87
2023/12/08 05:02:31;;;;;;;11.73;7.05;;;4.30;52.20;;;;;;5007841;28;20420;-84
2023/12/08 05:05:03;;;;;;;12.70;7.13;;;4.30;52.10;;;;;;4992733;28;20101;-88
2023/12/08 05:07:29;;;;;;;10.30;6.50;;;4.30;52.10;;;;;;4991269;28;20034;-83
2023/12/08 05:09:55;;;;;;;10.40;6.30;;;4.40;52.40;;;;;;4992889;28;20035;-86
2023/12/08 05:12:21;;;;;;;12.25;7.43;;;4.30;52.30;;;;;;5000212;28;20042;-84
2023/12/08 05:14:47;;;;;;;11.68;6.95;;;4.40;52.50;;;;;;5009269;28;20532;-84
2023/12/08 05:17:13;;;;;;;12.02;7.20;;;4.40;52.60;;;;;;4993504;28;20096;-85
2023/12/08 05:19:39;;;;;;;10.52;6.80;;;4.40;52.40;;;;;;4993165;28;20038;-82
2023/12/08 05:22:05;;;;;;;13.25;7.40;;;4.30;52.30;;;;;;5009074;28;20030;-84
2023/12/08 05:24:31;;;;;;;12.77;7.55;;;4.40;52.40;;;;;;4994701;28;20549;-83
2023/12/08 05:26:58;;;;;;;13.43;7.63;;;4.40;52.30;;;;;;4994121;28;20038;-83
2023/12/08 05:29:24;;;;;;;13.75;7.72;;;4.40;52.30;;;;;;4995077;28;20420;-83
2023/12/08 05:31:50;;;;;;;10.68;7.22;;;4.40;52.20;;;;;;4994443;28;20037;-82
2023/12/08 05:34:16;;;;;;;11.88;7.50;;;4.40;52.20;;;;;;4993195;28;20396;-82
2023/12/08 05:36:42;;;;;;;13.10;7.68;;;4.40;52.10;;;;;;5009125;28;20035;-83
2023/12/08 05:39:08;;;;;;;13.50;7.20;;;4.40;52.10;;;;;;4993544;28;20038;-83
2023/12/08 05:41:34;;;;;;;11.95;7.00;;;4.40;52.10;;;;;;4992948;28;20038;-83
2023/12/08 05:44:00;;;;;;;13.15;7.75;;;4.40;51.90;;;;;;5009205;28;20038;-83
2023/12/08 05:46:26;;;;;;;12.45;7.70;;;4.40;52.00;;;;;;4995497;28;20045;-83
2023/12/08 05:48:52;;;;;;;13.68;7.65;;;4.40;52.00;;;;;;4993489;28;20125;-83
2023/12/08 05:51:18;;;;;;;12.75;6.95;;;4.40;51.90;;;;;;4993710;28;20046;-81
2023/12/08 05:53:44;;;;;;;11.93;7.18;;;4.40;51.90;;;;;;4995649;28;20079;-81
2023/12/08 05:56:10;;;;;;;11.15;7.63;;;4.40;51.80;;;;;;4993984;28;20077;-81
2023/12/08 05:58:36;;;;;;;11.23;6.82;;;4.40;52.30;;;;;;4988216;28;20513;-82
2023/12/08 06:01:02;;;;;;;10.43;6.68;;;4.40;51.60;;;;;;4995618;28;20035;-79
2023/12/08 06:03:28;;;;;;;11.18;7.10;;;4.50;51.70;;;;;;4993805;28;20045;-89
2023/12/08 06:05:54;;;;;;;10.95;6.65;;;4.50;51.60;;;;;;4998722;28;20092;-84
2023/12/08 06:08:20;;;;;;;12.73;7.20;;;4.40;51.40;;;;;;5013727;28;20035;-83
2023/12/08 06:10:46;;;;;;;12.15;7.55;;;4.40;51.50;;;;;;5010286;28;20046;-82
2023/12/08 06:13:13;;;;;;;10.85;6.38;;;4.50;51.60;;;;;;4997161;28;20038;-84
2023/12/08 06:15:39;;;;;;;12.60;7.10;;;4.50;51.50;;;;;;4999441;28;20049;-80
2023/12/08 06:18:05;;;;;;;10.90;7.00;;;4.50;51.50;;;;;;5013756;28;20030;-80
2023/12/08 06:20:32;;;;;;;11.02;7.45;;;4.50;51.40;;;;;;4994418;28;20053;-92
2023/12/08 06:22:58;;;;;;;10.35;6.72;;;4.50;51.50;;;;;;4993047;28;20045;-83
2023/12/08 06:25:24;;;;;;;10.77;7.10;;;4.50;51.30;;;;;;4991415;28;20539;-84
2023/12/08 06:27:50;;;;;;;13.50;7.93;;;4.50;51.40;;;;;;5000072;28;20042;-85
2023/12/08 06:30:16;;;;;;;11.48;7.10;;;4.50;51.20;;;;;;4989881;28;20512;-89
2023/12/08 06:32:42;;;;;;;10.93;6.93;;;4.50;51.40;;;;;;4994271;28;20079;-81
2023/12/08 06:35:08;;;;;;;11.73;7.15;;;4.50;51.30;;;;;;5009907;28;20089;-87
2023/12/08 06:37:35;;;;;;;11.70;7.00;;;4.50;51.80;;;;;;4992929;28;20132;-88
2023/12/08 06:40:01;;;;;;;11.18;6.60;;;4.50;51.10;;;;;;5009027;28;20034;-90
2023/12/08 06:42:27;;;;;;;11.00;6.70;;;4.50;51.10;;;;;;4994347;28;20428;-90
2023/12/08 06:44:53;;;;;;;12.38;7.22;;;4.50;51.00;;;;;;4977828;28;20045;-90
2023/12/08 06:47:19;;;;;;;12.25;7.45;;;4.50;51.10;;;;;;5009777;28;20030;-85
2023/12/08 06:49:45;;;;;;;10.40;7.03;;;4.50;51.00;;;;;;4996438;28;20062;-92
2023/12/08 06:52:11;;;;;;;11.18;7.32;;;4.50;51.00;;;;;;4996442;28;20046;-89
2023/12/08 06:54:37;;;;;;;13.25;7.57;;;4.50;51.10;;;;;;4997459;28;20046;-94
2023/12/08 06:57:03;;;;;;;12.35;7.60;;;4.60;51.10;;;;;;5000960;28;20060;-90
2023/12/08 06:59:29;;;;;;;14.15;8.02;;;4.60;51.00;;;;;;5025374;28;20022;-94
2023/12/08 07:01:55;;;;;;;12.27;7.70;;;4.60;51.00;;;;;;5017325;28;20035;-91
2023/12/08 07:04:21;;;;;;;11.25;7.93;;;4.60;50.80;;;;;;5002201;28;20042;-87
2023/12/08 07:06:47;;;;;;;11.57;7.57;;;4.50;50.80;;;;;;5006918;28;20031;-94
2023/12/08 07:09:14;;;;;;;11.48;6.80;;;4.60;50.80;;;;;;5006164;28;20118;-91
2023/12/08 07:11:40;;;;;;;13.07;7.93;;;4.60;50.80;;;;;;4986600;28;20493;-87
2023/12/08 07:14:06;;;;;;;10.98;7.00;;;4.60;50.80;;;;;;5001290;28;20805;-89
2023/12/08 07:16:32;;;;;;;10.88;7.45;;;4.50;50.60;;;;;;4995684;28;20088;-88
2023/12/08 07:18:58;;;;;;;11.50;7.18;;;4.60;50.60;;;;;;4993908;28;20560;-84
2023/12/08 07:21:24;;;;;;;14.25;8.15;;;4.60;50.70;;;;;;4994415;28;20038;-91
2023/12/08 07:23:50;;;;;;;11.85;7.13;;;4.60;50.80;;;;;;4995516;28;20045;-90
2023/12/08 07:26:16;;;;;;;12.10;7.68;;;4.60;50.60;;;;;;4977644;28;20043;-89
2023/12/08 07:28:42;;;;;;;11.55;7.40;;;4.60;50.60;;;;;;5008602;28;20121;-84
2023/12/08 07:31:09;;;;;;;10.20;7.38;;;4.70;50.60;;;;;;4991978;28;20149;-91
2023/12/08 07:33:35;;;;;;;12.60;7.80;;;4.70;50.50;;;;;;4997898;28;20041;-91
2023/12/08 07:36:01;;;;;;;13.30;8.50;;;4.70;50.60;;;;;;5008798;28;20041;-86
2023/12/08 07:38:28;;;;;;;11.35;7.22;;;4.70;50.50;;;;;;5000946;28;20030;-94
2023/12/08 07:40:54;;;;;;;14.27;7.60;;;4.70;50.50;;;;;;4979462;28;20058;-92
2023/12/08 07:43:20;;;;;;;13.25;8.18;;;4.70;50.50;;;;;;4986222;28;20054;-86
2023/12/08 07:45:46;;;;;;;10.40;7.75;;;4.70;50.60;;;;;;4996730;28;20076;-90
2023/12/08 07:48:12;;;;;;;10.45;7.25;;;4.70;50.70;;;;;;4996746;28;20034;-92
2023/12/08 07:50:38;;;;;;;11.55;7.68;;;4.80;50.60;;;;;;4995719;28;20137;-88
2023/12/08 07:53:05;;;;;;;10.75;7.32;;;4.80;50.60;;;;;;5002644;28;20102;-94
2023/12/08 08:04:41;;;;;;;10.40;7.15;;;4.80;50.30;;;;;;5197451;23;20046;-93
2023/12/08 08:07:07;;;;;;;12.00;7.38;;;4.80;50.30;;;;;;4971266;28;20580;-93
2023/12/08 08:09:33;;;;;;;12.20;6.70;;;4.80;50.20;;;;;;4979228;28;20041;-92
2023/12/08 08:11:59;;;;;;;11.50;7.85;;;4.80;50.30;;;;;;4977267;28;20038;-86
2023/12/08 08:14:26;;;;;;;10.48;7.18;;;4.90;50.30;;;;;;4952810;28;20035;-92
2023/12/08 08:16:52;;;;;;;11.90;6.60;;;4.90;50.30;;;;;;4954371;28;20656;-89
2023/12/08 08:19:18;;;;;;;9.25;6.47;;;4.90;50.20;;;;;;4971477;28;20054;-91
2023/12/08 08:30:27;;;;;;;11.52;6.70;;;5.00;50.20;;;;;;4939676;28;20105;-91
2023/12/08 08:32:53;;;;;;;10.80;6.72;;;5.00;50.20;;;;;;4922379;29;20046;-94
2023/12/08 08:35:20;;;;;;;10.93;6.55;;;5.00;50.10;;;;;;4919330;29;20031;-85
2023/12/08 08:37:46;;;;;;;9.73;6.45;;;5.10;50.10;;;;;;4930053;29;20127;-90
2023/12/08 08:40:12;;;;;;;8.82;6.32;;;5.10;50.20;;;;;;4926732;29;20574;-88
2023/12/08 08:42:38;;;;;;;11.10;6.53;;;5.10;50.10;;;;;;4915013;29;20124;-91
2023/12/08 08:45:06;;;;;;;9.00;6.22;;;5.10;50.10;;;;;;4916732;29;20106;-92
2023/12/08 08:47:32;;;;;;;10.75;6.70;;;5.10;50.10;;;;;;4940016;29;20099;-85
2023/12/08 08:50:09;;;;;;;10.02;7.18;;;5.20;50.10;;;;;;4992474;23;20070;31
2023/12/08 08:52:35;;;;;;;10.55;6.60;;;5.10;50.10;;;;;;4949505;28;20103;-90
2023/12/08 08:55:02;;;;;;;10.15;6.43;;;5.20;49.90;;;;;;4949782;29;20104;-89
2023/12/08 08:57:28;;;;;;;9.73;6.78;;;5.20;49.80;;;;;;4952263;28;20042;-89
2023/12/08 08:59:57;;;;;;;11.45;7.28;;;5.20;49.80;;;;;;4939047;28;20037;-90
2023/12/08 09:02:24;;;;;;;11.07;6.78;;;5.20;49.80;;;;;;4955184;29;20023;-88
2023/12/08 09:04:50;;;;;;;11.35;7.30;;;5.20;49.80;;;;;;4951945;28;20038;-89
2023/12/08 09:07:17;;;;;;;9.90;6.75;;;5.20;49.80;;;;;;4954279;28;20090;-90
2023/12/08 09:09:46;;;;;;;10.63;6.95;;;5.20;49.80;;;;;;4962394;29;20039;-81
2023/12/08 09:12:13;;;;;;;9.65;7.15;;;5.20;49.70;;;;;;4954805;28;20062;-90
2023/12/08 09:14:39;;;;;;;11.18;7.28;;;5.20;49.80;;;;;;4954912;28;20039;-88
2023/12/08 09:17:05;;;;;;;11.18;7.30;;;5.20;49.70;;;;;;4956934;28;20457;-89
2023/12/08 09:19:35;;;;;;;12.65;7.97;;;5.20;49.70;;;;;;4957451;29;20031;-90
2023/12/08 09:22:01;;;;;;;12.07;7.57;;;5.30;49.80;;;;;;4990439;23;20059;-89
2023/12/08 09:24:29;;;;;;;11.52;7.70;;;5.20;49.80;;;;;;4955891;28;20051;-86
2023/12/08 09:26:56;;;;;;;11.43;8.15;;;5.30;49.70;;;;;;4956037;29;20045;-81
2023/12/08 09:29:22;;;;;;;12.73;7.63;;;5.30;49.70;;;;;;4967439;28;20036;-77
2023/12/08 09:31:48;;;;;;;11.85;7.97;;;5.30;49.70;;;;;;4965147;28;20438;-82
2023/12/08 09:34:16;;;;;;;12.15;8.13;;;5.20;49.50;;;;;;4963099;29;20051;-87
2023/12/08 09:36:42;;;;;;;11.95;7.95;;;5.30;49.80;;;;;;4949602;28;20036;-80
2023/12/08 09:39:08;;;;;;;12.70;8.15;;;5.30;49.40;;;;;;4966766;28;20103;-85
2023/12/08 09:41:39;;;;;;;11.55;7.80;;;5.30;49.30;;;;;;4961365;29;20094;-89
2023/12/08 09:44:13;;;;;;;12.07;7.97;;;5.30;49.40;;;;;;4960626;29;20036;-88
2023/12/08 09:46:44;;;;;;;10.48;6.88;;;5.30;49.10;;;;;;4958909;29;20040;-84
2023/12/08 09:49:28;;;;;;;11.25;7.47;;;5.30;49.20;;;;;;4960579;28;20094;-83
2023/12/08 09:51:55;;;;;;;13.15;7.38;;;5.30;49.00;;;;;;4962326;29;20043;-89
2023/12/08 09:54:23;;;;;;;10.40;6.75;;;5.30;49.00;;;;;;4960581;28;20047;-85
2023/12/08 09:56:54;;;;;;;10.85;7.18;;;5.30;49.00;;;;;;4960148;28;20035;-91
2023/12/08 09:59:26;;;;;;;11.00;6.82;;;5.30;48.90;;;;;;4945320;29;20058;-89
2023/12/08 10:01:52;;;;;;;10.23;6.45;;;5.20;48.80;;;;;;4944707;29;20039;-88
2023/12/08 10:04:23;;;;;;;11.65;6.55;;;5.20;48.80;;;;;;4946606;29;20121;-87
2023/12/08 10:06:50;;;;;;;12.02;7.40;;;5.20;48.90;;;;;;4931065;29;20028;-91
2023/12/08 10:09:19;;;;;;;13.00;6.90;;;5.20;49.00;;;;;;4938169;28;20043;-95
2023/12/08 10:11:45;;;;;;;10.48;6.05;;;5.20;49.10;;;;;;4935506;29;20047;-91
2023/12/08 10:14:14;;;;;;;10.23;6.45;;;5.20;49.10;;;;;;4956238;29;20081;-95
2023/12/08 10:16:42;;;;;;;11.38;7.07;;;5.20;49.10;;;;;;4945740;29;20039;-87
2023/12/08 10:19:09;;;;;;;10.65;6.70;;;5.20;48.90;;;;;;4942320;29;20048;-90
2023/12/08 10:21:35;;;;;;;9.50;6.47;;;5.20;49.10;;;;;;4947967;29;20751;-89
2023/12/08 10:24:02;;;;;;;11.27;6.82;;;5.20;48.90;;;;;;4946640;29;20035;-86
2023/12/08 10:26:30;;;;;;;10.88;6.70;;;5.20;48.60;;;;;;4946268;29;20540;-86
2023/12/08 10:29:00;;;;;;;9.63;6.55;;;5.20;48.60;;;;;;4953598;29;20035;-96
2023/12/08 10:31:27;;;;;;;10.55;6.75;;;5.20;48.80;;;;;;4952514;28;20043;-90
2023/12/08 10:36:29;;;;;;;10.85;6.90;;;5.20;48.80;;;;;;4930528;29;20044;-89
2023/12/08 10:38:55;;;;;;;9.75;6.43;;;5.20;48.80;;;;;;4899257;29;20091;-89
2023/12/08 10:41:22;;;;;;;9.90;6.22;;;5.20;48.70;;;;;;4895745;29;20032;-91
2023/12/08 10:43:48;;;;;;;9.52;6.22;;;5.20;48.90;;;;;;5067968;23;20076;-92
2023/12/08 10:46:15;;;;;;;11.00;6.70;;;5.20;48.90;;;;;;4897975;29;20044;-88
2023/12/08 10:48:43;;;;;;;11.32;7.15;;;5.20;49.10;;;;;;4931171;29;20076;-88
2023/12/08 10:51:13;;;;;;;11.52;6.32;;;5.20;48.90;;;;;;4932608;29;20085;-90
2023/12/08 10:53:40;;;;;;;11.25;7.15;;;5.20;48.70;;;;;;4932699;29;20135;-84
2023/12/08 10:56:16;;;;;;;10.23;6.93;;;5.20;48.60;;;;;;4936575;29;20052;-84
2023/12/08 10:58:45;;;;;;;9.95;6.13;;;5.20;48.70;;;;;;4908668;29;20031;-85
2023/12/08 11:01:14;;;;;;;11.18;6.55;;;5.20;48.80;;;;;;4929586;29;20187;-87
2023/12/08 11:03:42;;;;;;;10.18;6.53;;;5.10;48.60;;;;;;4929736;29;20035;-84
2023/12/08 11:06:21;;;;;;;11.20;6.78;;;5.20;48.60;;;;;;4927437;29;20091;-87
2023/12/08 11:08:54;;;;;;;12.30;7.78;;;5.20;48.60;;;;;;4899588;29;20027;-85
2023/12/08 11:11:23;;;;;;;12.70;7.50;;;5.20;48.50;;;;;;4913037;29;20039;-84
2023/12/08 11:14:06;;;;;;;11.68;8.00;;;5.20;48.40;;;;;;4929326;29;20087;-88
2023/12/08 11:16:35;;;;;;;10.45;6.70;;;5.20;48.40;;;;;;4937366;29;20066;-89
2023/12/08 11:19:01;;;;;;;11.23;7.15;;;5.20;48.10;;;;;;4915890;29;20053;-87
2023/12/08 11:21:28;;;;;;;11.30;7.07;;;5.20;48.20;;;;;;4934593;29;20130;-86
2023/12/08 11:23:55;;;;;;;12.02;6.65;;;5.20;48.00;;;;;;4910913;29;20410;-80
2023/12/08 11:26:45;;;;;;;11.50;7.40;;;5.10;48.10;;;;;;4910037;29;20042;-79
2023/12/08 11:29:52;;;;;;;12.35;7.22;;;5.10;48.10;;;;;;4926826;29;20087;-80
2023/12/08 11:32:31;;;;;;;12.05;7.25;;;5.10;48.30;;;;;;4929875;29;20040;-80
2023/12/08 11:35:03;;;;;;;11.30;6.93;;;5.00;48.20;;;;;;4928648;29;20465;-79
2023/12/08 11:37:30;;;;;;;11.45;6.63;;;5.00;48.20;;;;;;4928907;29;20042;-81
2023/12/08 11:40:07;;;;;;;12.25;7.03;;;5.10;48.40;;;;;;4910035;29;20039;-81
2023/12/08 11:42:34;;;;;;;11.75;6.95;;;5.00;48.20;;;;;;4910918;29;20539;-80
2023/12/08 11:45:00;;;;;;;9.98;6.38;;;5.00;48.10;;;;;;4929333;29;20953;-79
2023/12/08 11:47:27;;;;;;;10.70;6.88;;;5.10;48.20;;;;;;4910929;29;20099;-80
2023/12/08 11:49:55;;;;;;;12.07;6.80;;;5.00;48.20;;;;;;4927972;29;20070;-81
2023/12/08 11:52:29;;;;;;;13.20;7.50;;;5.00;48.10;;;;;;4927393;29;20072;-79
2023/12/08 11:55:11;;;;;;;9.95;7.22;;;5.00;48.20;;;;;;4926946;29;20043;-81
2023/12/08 11:57:59;;;;;;;11.63;6.60;;;5.00;48.30;;;;;;4912711;29;20510;-81
2023/12/08 12:00:27;;;;;;;10.27;6.47;;;5.00;48.10;;;;;;4927990;29;20113;-81
2023/12/08 12:02:55;;;;;;;11.40;6.97;;;5.00;48.30;;;;;;4927067;29;20027;-80
2023/12/08 12:05:21;;;;;;;10.65;6.28;;;5.00;48.30;;;;;;4927583;29;20522;-80
2023/12/08 12:07:52;;;;;;;10.13;6.57;;;5.00;48.20;;;;;;4928581;29;20111;-81
2023/12/08 12:10:26;;;;;;;9.80;6.97;;;5.00;48.10;;;;;;4927090;29;20502;-80
2023/12/08 12:13:03;;;;;;;11.45;7.25;;;5.00;48.10;;;;;;4928657;29;20067;-79
2023/12/08 12:15:30;;;;;;;11.02;6.68;;;5.00;48.10;;;;;;4910019;29;20039;-81
2023/12/08 12:17:58;;;;;;;12.20;7.40;;;5.00;48.10;;;;;;4916925;29;20078;-79
2023/12/08 12:20:28;;;;;;;10.55;7.20;;;5.00;47.90;;;;;;4908857;29;20435;-79
2023/12/08 12:22:54;;;;;;;16.08;7.82;;;5.00;47.90;;;;;;4912076;29;20039;-80
2023/12/08 12:25:20;;;;;;;12.70;7.43;;;5.00;48.00;;;;;;4928561;29;20130;-80
2023/12/08 12:27:47;;;;;;;12.13;7.75;;;5.00;47.70;;;;;;4927821;29;20043;-82
2023/12/08 12:30:15;;;;;;;12.93;7.30;;;5.00;47.90;;;;;;4925154;29;20530;-81
2023/12/08 12:32:41;;;;;;;11.57;6.72;;;5.00;47.90;;;;;;4927815;29;20042;-83
2023/12/08 12:35:08;;;;;;;12.60;6.95;;;5.00;48.10;;;;;;4927480;29;20043;-84
2023/12/08 12:37:34;;;;;;;10.55;7.05;;;5.00;47.90;;;;;;4925674;29;20070;-85
2023/12/08 12:40:00;;;;;;;11.63;7.70;;;5.00;47.80;;;;;;4927431;29;20039;-82
2023/12/08 12:42:27;;;;;;;12.23;7.32;;;5.00;48.00;;;;;;4899676;29;20091;-84
2023/12/08 12:44:53;;;;;;;12.52;7.70;;;4.90;47.90;;;;;;4908828;29;20054;-88
2023/12/08 12:47:26;;;;;;;10.85;7.13;;;5.00;47.90;;;;;;4912562;29;20035;-91
2023/12/08 12:50:08;;;;;;;11.38;7.05;;;4.90;47.90;;;;;;4928873;29;20060;-87
2023/12/08 12:52:36;;;;;;;13.93;7.70;;;4.90;47.80;;;;;;4916589;29;20042;-82
2023/12/08 12:55:21;;;;;;;11.35;6.80;;;4.90;47.90;;;;;;4952673;28;20063;-76
2023/12/08 12:57:49;;;;;;;11.52;7.20;;;4.90;47.90;;;;;;4936379;28;20035;-79
2023/12/08 13:00:37;;;;;;;13.05;7.65;;;4.90;47.70;;;;;;4938928;28;20048;-89
2023/12/08 13:03:07;;;;;;;11.70;7.18;;;4.90;47.60;;;;;;4912048;29;20040;-88
2023/12/08 13:05:34;;;;;;;10.98;7.05;;;4.80;47.70;;;;;;4912565;29;20067;-88
2023/12/08 13:08:00;;;;;;;13.07;7.40;;;4.80;47.60;;;;;;4931147;29;20036;-84
2023/12/08 13:10:29;;;;;;;12.85;7.28;;;4.80;47.50;;;;;;4911341;29;20035;-86
2023/12/08 13:12:56;;;;;;;11.85;7.53;;;4.80;47.50;;;;;;4929425;29;20130;-89